sensor_id;sensor_type;location;lat;lon;timestamp;P1;P2;P0
69350;PMS7003;57106;51.446;-2.606;2022-12-11T00:02:09;93;75;
69350;PMS7003;57106;51.446;-2.606;2022-12-11T00:04:38;82;78;
69350;PMS7003;57106;51.446;-2.606;2022-12-11T00:07:00;77;70;
69350;PMS7003;57106;51.446;-2.606;2022-12-11T00:09:25;70;65;
69350;PMS7003;57106;51.446;-2.606;2022-12-11T00:11:51;69;64;
69350;PMS7003;57106;51.446;-2.606;2022-12-11T00:14:17;75;68;
69350;PMS7003;57106;51.446;-2.606;2022-12-11T00:16:42;76;63;
69350;PMS7003;57106;51.446;-2.606;2022-12-11T00:19:07;71;67;
69350;PMS7003;57106;51.446;-2.606;2022-12-11T00:21:33;79;64;
69350;PMS7003;57106;51.446;-2.606;2022-12-11T00:23:58;61;58;
69350;PMS7003;57106;51.446;-2.606;2022-12-11T00:26:24;69;59;
69350;PMS7003;57106;51.446;-2.606;2022-12-11T00:28:51;76;68;
69350;PMS7003;57106;51.446;-2.606;2022-12-11T00:31:16;75;64;
69350;PMS7003;57106;51.446;-2.606;2022-12-11T00:33:40;69;53;
69350;PMS7003;57106;51.446;-2.606;2022-12-11T00:36:09;65;63;
69350;PMS7003;57106;51.446;-2.606;2022-12-11T00:38:31;75;65;
69350;PMS7003;57106;51.446;-2.606;2022-12-11T00:40:56;70;60;
69350;PMS7003;57106;51.446;-2.606;2022-12-11T00:43:22;76;64;
69350;PMS7003;57106;51.446;-2.606;2022-12-11T00:45:47;76;66;
69350;PMS7003;57106;51.446;-2.606;2022-12-11T00:48:12;68;64;
69350;PMS7003;57106;51.446;-2.606;2022-12-11T00:50:38;73;67;
69350;PMS7003;57106;51.446;-2.606;2022-12-11T00:53:03;64;59;
69350;PMS7003;57106;51.446;-2.606;2022-12-11T00:55:28;73;71;
69350;PMS7003;57106;51.446;-2.606;2022-12-11T00:57:55;68;65;
69350;PMS7003;57106;51.446;-2.606;2022-12-11T01:00:19;72;58;
69350;PMS7003;57106;51.446;-2.606;2022-12-11T01:02:44;54;48;
69350;PMS7003;57106;51.446;-2.606;2022-12-11T01:05:10;47;44;
69350;PMS7003;57106;51.446;-2.606;2022-12-11T01:07:38;48;46;
69350;PMS7003;57106;51.446;-2.606;2022-12-11T01:10:00;65;58;
69350;PMS7003;57106;51.446;-2.606;2022-12-11T01:14:50;58;50;
69350;PMS7003;57106;51.446;-2.606;2022-12-11T01:17:15;64;56;
69350;PMS7003;57106;51.446;-2.606;2022-12-11T01:19:41;56;50;
69350;PMS7003;57106;51.446;-2.606;2022-12-11T01:22:11;60;50;
69350;PMS7003;57106;51.446;-2.606;2022-12-11T01:24:33;55;46;
69350;PMS7003;57106;51.446;-2.606;2022-12-11T01:26:57;51;47;
69350;PMS7003;57106;51.446;-2.606;2022-12-11T01:29:22;50;45;
69350;PMS7003;57106;51.446;-2.606;2022-12-11T01:31:48;58;50;
69350;PMS7003;57106;51.446;-2.606;2022-12-11T01:34:15;52;45;
69350;PMS7003;57106;51.446;-2.606;2022-12-11T01:36:39;52;47;
69350;PMS7003;57106;51.446;-2.606;2022-12-11T01:39:05;48;47;
69350;PMS7003;57106;51.446;-2.606;2022-12-11T01:41:30;49;44;
69350;PMS7003;57106;51.446;-2.606;2022-12-11T01:43:57;49;47;
69350;PMS7003;57106;51.446;-2.606;2022-12-11T01:46:21;42;38;
69350;PMS7003;57106;51.446;-2.606;2022-12-11T01:48:46;43;39;
69350;PMS7003;57106;51.446;-2.606;2022-12-11T01:51:12;38;35;
69350;PMS7003;57106;51.446;-2.606;2022-12-11T01:53:39;47;44;
69350;PMS7003;57106;51.446;-2.606;2022-12-11T01:56:03;38;32;
69350;PMS7003;57106;51.446;-2.606;2022-12-11T02:03:20;43;36;
69350;PMS7003;57106;51.446;-2.606;2022-12-11T02:10:42;42;38;
69350;PMS7003;57106;51.446;-2.606;2022-12-11T02:54:15;35;34;
69350;PMS7003;57106;51.446;-2.606;2022-12-11T03:03:56;36;36;
69350;PMS7003;57106;51.446;-2.606;2022-12-11T03:06:23;46;38;
69350;PMS7003;57106;51.446;-2.606;2022-12-11T03:11:12;38;34;
69350;PMS7003;57106;51.446;-2.606;2022-12-11T03:18:29;37;32;
69350;PMS7003;57106;51.446;-2.606;2022-12-11T03:35:27;35;32;
69350;PMS7003;57106;51.446;-2.606;2022-12-11T03:37:52;30;27;
69350;PMS7003;57106;51.446;-2.606;2022-12-11T03:40:19;34;31;
69350;PMS7003;57106;51.446;-2.606;2022-12-11T03:42:44;28;27;
69350;PMS7003;57106;51.446;-2.606;2022-12-11T03:45:10;33;28;
69350;PMS7003;57106;51.446;-2.606;2022-12-11T03:47:35;30;28;
69350;PMS7003;57106;51.446;-2.606;2022-12-11T03:49:59;28;26;
69350;PMS7003;57106;51.446;-2.606;2022-12-11T03:52:26;30;27;
69350;PMS7003;57106;51.446;-2.606;2022-12-11T03:54:51;27;24;
69350;PMS7003;57106;51.446;-2.606;2022-12-11T03:57:18;26;23;
69350;PMS7003;57106;51.446;-2.606;2022-12-11T03:59:42;24;24;
69350;PMS7003;57106;51.446;-2.606;2022-12-11T04:02:08;24;23;
69350;PMS7003;57106;51.446;-2.606;2022-12-11T04:04:33;28;25;
69350;PMS7003;57106;51.446;-2.606;2022-12-11T04:19:07;35;29;
69350;PMS7003;57106;51.446;-2.606;2022-12-11T04:21:31;32;30;
69350;PMS7003;57106;51.446;-2.606;2022-12-11T04:23:57;30;28;
69350;PMS7003;57106;51.446;-2.606;2022-12-11T04:26:22;29;26;
69350;PMS7003;57106;51.446;-2.606;2022-12-11T04:28:48;30;28;
69350;PMS7003;57106;51.446;-2.606;2022-12-11T04:31:14;29;28;
69350;PMS7003;57106;51.446;-2.606;2022-12-11T04:33:39;32;27;
69350;PMS7003;57106;51.446;-2.606;2022-12-11T04:36:05;27;27;
69350;PMS7003;57106;51.446;-2.606;2022-12-11T04:38:31;31;27;
69350;PMS7003;57106;51.446;-2.606;2022-12-11T04:40:57;34;32;
69350;PMS7003;57106;51.446;-2.606;2022-12-11T04:43:22;29;27;
69350;PMS7003;57106;51.446;-2.606;2022-12-11T04:45:48;34;31;
69350;PMS7003;57106;51.446;-2.606;2022-12-11T04:48:13;31;29;
69350;PMS7003;57106;51.446;-2.606;2022-12-11T04:50:39;33;29;
69350;PMS7003;57106;51.446;-2.606;2022-12-11T04:53:05;27;26;
69350;PMS7003;57106;51.446;-2.606;2022-12-11T04:55:31;28;25;
69350;PMS7003;57106;51.446;-2.606;2022-12-11T04:57:56;25;22;
69350;PMS7003;57106;51.446;-2.606;2022-12-11T05:00:21;20;20;
69350;PMS7003;57106;51.446;-2.606;2022-12-11T05:02:47;32;28;
69350;PMS7003;57106;51.446;-2.606;2022-12-11T05:05:12;22;21;
69350;PMS7003;57106;51.446;-2.606;2022-12-11T05:07:37;22;21;
69350;PMS7003;57106;51.446;-2.606;2022-12-11T05:12:28;22;20;
69350;PMS7003;57106;51.446;-2.606;2022-12-11T05:14:54;18;16;
69350;PMS7003;57106;51.446;-2.606;2022-12-11T05:17:20;31;23;
69350;PMS7003;57106;51.446;-2.606;2022-12-11T05:19:46;21;19;
69350;PMS7003;57106;51.446;-2.606;2022-12-11T05:22:11;28;23;
69350;PMS7003;57106;51.446;-2.606;2022-12-11T05:24:36;20;19;
69350;PMS7003;57106;51.446;-2.606;2022-12-11T05:27:04;22;19;
69350;PMS7003;57106;51.446;-2.606;2022-12-11T05:29:27;19;17;
69350;PMS7003;57106;51.446;-2.606;2022-12-11T05:31:52;22;21;
69350;PMS7003;57106;51.446;-2.606;2022-12-11T05:34:18;23;21;
69350;PMS7003;57106;51.446;-2.606;2022-12-11T05:36:43;20;17;
69350;PMS7003;57106;51.446;-2.606;2022-12-11T05:39:09;19;17;
69350;PMS7003;57106;51.446;-2.606;2022-12-11T05:41:35;17;15;
69350;PMS7003;57106;51.446;-2.606;2022-12-11T05:44:01;19;16;
69350;PMS7003;57106;51.446;-2.606;2022-12-11T05:46:27;22;19;
69350;PMS7003;57106;51.446;-2.606;2022-12-11T05:48:53;21;18;
69350;PMS7003;57106;51.446;-2.606;2022-12-11T05:51:18;21;17;
69350;PMS7003;57106;51.446;-2.606;2022-12-11T05:53:44;19;18;
69350;PMS7003;57106;51.446;-2.606;2022-12-11T05:56:10;19;15;
69350;PMS7003;57106;51.446;-2.606;2022-12-11T05:58:36;18;16;
69350;PMS7003;57106;51.446;-2.606;2022-12-11T06:01:01;15;14;
69350;PMS7003;57106;51.446;-2.606;2022-12-11T06:03:27;23;20;
69350;PMS7003;57106;51.446;-2.606;2022-12-11T06:05:53;21;18;
69350;PMS7003;57106;51.446;-2.606;2022-12-11T06:08:18;21;15;
69350;PMS7003;57106;51.446;-2.606;2022-12-11T06:10:44;17;15;
69350;PMS7003;57106;51.446;-2.606;2022-12-11T06:13:09;22;20;
69350;PMS7003;57106;51.446;-2.606;2022-12-11T06:15:35;23;20;
69350;PMS7003;57106;51.446;-2.606;2022-12-11T06:18:00;22;20;
69350;PMS7003;57106;51.446;-2.606;2022-12-11T06:20:26;21;17;
69350;PMS7003;57106;51.446;-2.606;2022-12-11T06:22:51;22;17;
69350;PMS7003;57106;51.446;-2.606;2022-12-11T06:25:17;20;20;
69350;PMS7003;57106;51.446;-2.606;2022-12-11T06:27:43;22;20;
69350;PMS7003;57106;51.446;-2.606;2022-12-11T06:30:09;19;19;
69350;PMS7003;57106;51.446;-2.606;2022-12-11T06:32:35;19;18;
69350;PMS7003;57106;51.446;-2.606;2022-12-11T06:35:00;22;19;
69350;PMS7003;57106;51.446;-2.606;2022-12-11T06:37:25;21;19;
69350;PMS7003;57106;51.446;-2.606;2022-12-11T06:39:51;16;15;
69350;PMS7003;57106;51.446;-2.606;2022-12-11T06:42:17;22;17;
69350;PMS7003;57106;51.446;-2.606;2022-12-11T06:44:43;26;22;
69350;PMS7003;57106;51.446;-2.606;2022-12-11T06:47:09;27;25;
69350;PMS7003;57106;51.446;-2.606;2022-12-11T06:49:34;20;16;
69350;PMS7003;57106;51.446;-2.606;2022-12-11T06:52:00;26;24;
69350;PMS7003;57106;51.446;-2.606;2022-12-11T06:54:26;18;17;
69350;PMS7003;57106;51.446;-2.606;2022-12-11T06:56:52;21;16;
69350;PMS7003;57106;51.446;-2.606;2022-12-11T06:59:17;22;18;
69350;PMS7003;57106;51.446;-2.606;2022-12-11T07:01:43;23;22;
69350;PMS7003;57106;51.446;-2.606;2022-12-11T07:06:35;23;20;
69350;PMS7003;57106;51.446;-2.606;2022-12-11T07:09:02;24;20;
69350;PMS7003;57106;51.446;-2.606;2022-12-11T07:11:26;21;18;
69350;PMS7003;57106;51.446;-2.606;2022-12-11T07:13:51;26;22;
69350;PMS7003;57106;51.446;-2.606;2022-12-11T07:16:17;27;21;
69350;PMS7003;57106;51.446;-2.606;2022-12-11T07:18:45;22;22;
69350;PMS7003;57106;51.446;-2.606;2022-12-11T07:21:09;28;24;
69350;PMS7003;57106;51.446;-2.606;2022-12-11T07:26:02;22;17;
69350;PMS7003;57106;51.446;-2.606;2022-12-11T07:28:24;26;21;
69350;PMS7003;57106;51.446;-2.606;2022-12-11T07:30:50;19;19;
69350;PMS7003;57106;51.446;-2.606;2022-12-11T07:33:15;26;22;
69350;PMS7003;57106;51.446;-2.606;2022-12-11T07:35:40;21;20;
69350;PMS7003;57106;51.446;-2.606;2022-12-11T07:38:06;22;20;
69350;PMS7003;57106;51.446;-2.606;2022-12-11T07:40:32;24;24;
69350;PMS7003;57106;51.446;-2.606;2022-12-11T07:42:57;27;23;
69350;PMS7003;57106;51.446;-2.606;2022-12-11T07:45:23;22;20;
69350;PMS7003;57106;51.446;-2.606;2022-12-11T07:47:48;21;20;
69350;PMS7003;57106;51.446;-2.606;2022-12-11T07:50:14;27;22;
69350;PMS7003;57106;51.446;-2.606;2022-12-11T07:52:39;18;18;
69350;PMS7003;57106;51.446;-2.606;2022-12-11T07:55:05;23;22;
69350;PMS7003;57106;51.446;-2.606;2022-12-11T07:57:31;29;27;
69350;PMS7003;57106;51.446;-2.606;2022-12-11T07:59:57;28;26;
69350;PMS7003;57106;51.446;-2.606;2022-12-11T08:02:22;23;23;
69350;PMS7003;57106;51.446;-2.606;2022-12-11T08:04:48;24;20;
69350;PMS7003;57106;51.446;-2.606;2022-12-11T08:07:13;23;21;
69350;PMS7003;57106;51.446;-2.606;2022-12-11T08:09:38;23;22;
69350;PMS7003;57106;51.446;-2.606;2022-12-11T08:12:04;25;22;
69350;PMS7003;57106;51.446;-2.606;2022-12-11T08:14:29;22;20;
69350;PMS7003;57106;51.446;-2.606;2022-12-11T08:16:55;29;22;
69350;PMS7003;57106;51.446;-2.606;2022-12-11T08:19:21;32;27;
69350;PMS7003;57106;51.446;-2.606;2022-12-11T08:21:46;27;25;
69350;PMS7003;57106;51.446;-2.606;2022-12-11T08:24:12;28;23;
69350;PMS7003;57106;51.446;-2.606;2022-12-11T08:26:37;27;25;
69350;PMS7003;57106;51.446;-2.606;2022-12-11T08:29:03;27;23;
69350;PMS7003;57106;51.446;-2.606;2022-12-11T08:31:28;28;26;
69350;PMS7003;57106;51.446;-2.606;2022-12-11T08:33:55;28;23;
69350;PMS7003;57106;51.446;-2.606;2022-12-11T08:36:19;28;23;
69350;PMS7003;57106;51.446;-2.606;2022-12-11T08:38:44;24;17;
69350;PMS7003;57106;51.446;-2.606;2022-12-11T08:41:10;28;25;
69350;PMS7003;57106;51.446;-2.606;2022-12-11T08:43:36;24;20;
69350;PMS7003;57106;51.446;-2.606;2022-12-11T08:46:01;23;21;
69350;PMS7003;57106;51.446;-2.606;2022-12-11T08:48:30;24;21;
69350;PMS7003;57106;51.446;-2.606;2022-12-11T08:50:52;23;18;
69350;PMS7003;57106;51.446;-2.606;2022-12-11T08:55:43;22;20;
69350;PMS7003;57106;51.446;-2.606;2022-12-11T08:58:14;25;19;
69350;PMS7003;57106;51.446;-2.606;2022-12-11T09:00:34;22;21;
69350;PMS7003;57106;51.446;-2.606;2022-12-11T09:03:01;25;20;
69350;PMS7003;57106;51.446;-2.606;2022-12-11T09:05:26;22;18;
69350;PMS7003;57106;51.446;-2.606;2022-12-11T09:07:51;24;22;
69350;PMS7003;57106;51.446;-2.606;2022-12-11T09:10:17;21;20;
69350;PMS7003;57106;51.446;-2.606;2022-12-11T09:12:43;22;21;
69350;PMS7003;57106;51.446;-2.606;2022-12-11T09:15:08;22;21;
69350;PMS7003;57106;51.446;-2.606;2022-12-11T09:17:34;22;20;
69350;PMS7003;57106;51.446;-2.606;2022-12-11T09:19:59;23;20;
69350;PMS7003;57106;51.446;-2.606;2022-12-11T09:22:25;25;25;
69350;PMS7003;57106;51.446;-2.606;2022-12-11T09:24:50;26;25;
69350;PMS7003;57106;51.446;-2.606;2022-12-11T09:27:16;21;21;
69350;PMS7003;57106;51.446;-2.606;2022-12-11T09:29:41;24;23;
69350;PMS7003;57106;51.446;-2.606;2022-12-11T09:32:06;28;23;
69350;PMS7003;57106;51.446;-2.606;2022-12-11T09:34:32;28;26;
69350;PMS7003;57106;51.446;-2.606;2022-12-11T09:36:58;30;27;
69350;PMS7003;57106;51.446;-2.606;2022-12-11T09:41:52;30;27;
69350;PMS7003;57106;51.446;-2.606;2022-12-11T09:44:15;34;26;
69350;PMS7003;57106;51.446;-2.606;2022-12-11T09:46:40;34;30;
69350;PMS7003;57106;51.446;-2.606;2022-12-11T09:49:10;30;29;
69350;PMS7003;57106;51.446;-2.606;2022-12-11T09:51:33;27;26;
69350;PMS7003;57106;51.446;-2.606;2022-12-11T09:53:58;31;29;
69350;PMS7003;57106;51.446;-2.606;2022-12-11T09:56:24;29;28;
69350;PMS7003;57106;51.446;-2.606;2022-12-11T09:58:52;30;27;
69350;PMS7003;57106;51.446;-2.606;2022-12-11T10:01:16;26;26;
69350;PMS7003;57106;51.446;-2.606;2022-12-11T10:03:48;28;25;
69350;PMS7003;57106;51.446;-2.606;2022-12-11T10:06:06;34;29;
69350;PMS7003;57106;51.446;-2.606;2022-12-11T10:08:31;33;28;
69350;PMS7003;57106;51.446;-2.606;2022-12-11T10:10:58;31;30;
69350;PMS7003;57106;51.446;-2.606;2022-12-11T10:13:24;35;28;
69350;PMS7003;57106;51.446;-2.606;2022-12-11T10:15:48;34;29;
69350;PMS7003;57106;51.446;-2.606;2022-12-11T10:18:13;35;29;
69350;PMS7003;57106;51.446;-2.606;2022-12-11T10:20:37;31;27;
69350;PMS7003;57106;51.446;-2.606;2022-12-11T10:23:04;30;27;
69350;PMS7003;57106;51.446;-2.606;2022-12-11T10:25:30;31;28;
69350;PMS7003;57106;51.446;-2.606;2022-12-11T10:27:54;34;27;
69350;PMS7003;57106;51.446;-2.606;2022-12-11T10:30:20;29;24;
69350;PMS7003;57106;51.446;-2.606;2022-12-11T10:32:50;31;30;
69350;PMS7003;57106;51.446;-2.606;2022-12-11T10:35:15;40;27;
69350;PMS7003;57106;51.446;-2.606;2022-12-11T10:37:36;31;29;
69350;PMS7003;57106;51.446;-2.606;2022-12-11T10:40:02;31;29;
69350;PMS7003;57106;51.446;-2.606;2022-12-11T10:42:27;38;32;
69350;PMS7003;57106;51.446;-2.606;2022-12-11T10:44:55;41;39;
69350;PMS7003;57106;51.446;-2.606;2022-12-11T10:47:18;38;31;
69350;PMS7003;57106;51.446;-2.606;2022-12-11T10:49:50;37;36;
69350;PMS7003;57106;51.446;-2.606;2022-12-11T10:52:10;38;32;
69350;PMS7003;57106;51.446;-2.606;2022-12-11T10:54:40;38;35;
69350;PMS7003;57106;51.446;-2.606;2022-12-11T10:57:02;41;35;
69350;PMS7003;57106;51.446;-2.606;2022-12-11T10:59:28;43;36;
69350;PMS7003;57106;51.446;-2.606;2022-12-11T11:01:51;42;35;
69350;PMS7003;57106;51.446;-2.606;2022-12-11T11:04:19;32;31;
69350;PMS7003;57106;51.446;-2.606;2022-12-11T11:06:43;43;36;
69350;PMS7003;57106;51.446;-2.606;2022-12-11T11:11:34;50;44;
69350;PMS7003;57106;51.446;-2.606;2022-12-11T11:14:05;40;33;
69350;PMS7003;57106;51.446;-2.606;2022-12-11T11:16:24;32;30;
69350;PMS7003;57106;51.446;-2.606;2022-12-11T11:18:51;37;33;
69350;PMS7003;57106;51.446;-2.606;2022-12-11T11:21:15;39;32;
69350;PMS7003;57106;51.446;-2.606;2022-12-11T11:23:41;40;38;
69350;PMS7003;57106;51.446;-2.606;2022-12-11T11:26:06;43;36;
69350;PMS7003;57106;51.446;-2.606;2022-12-11T11:28:32;34;33;
69350;PMS7003;57106;51.446;-2.606;2022-12-11T11:30:58;32;30;
69350;PMS7003;57106;51.446;-2.606;2022-12-11T11:33:22;39;34;
69350;PMS7003;57106;51.446;-2.606;2022-12-11T11:35:50;43;35;
69350;PMS7003;57106;51.446;-2.606;2022-12-11T11:38:15;39;38;
69350;PMS7003;57106;51.446;-2.606;2022-12-11T11:40:40;46;35;
69350;PMS7003;57106;51.446;-2.606;2022-12-11T11:43:06;40;32;
69350;PMS7003;57106;51.446;-2.606;2022-12-11T11:47:57;46;38;
69350;PMS7003;57106;51.446;-2.606;2022-12-11T11:50:21;32;31;
69350;PMS7003;57106;51.446;-2.606;2022-12-11T11:52:47;38;33;
69350;PMS7003;57106;51.446;-2.606;2022-12-11T11:57:38;42;39;
69350;PMS7003;57106;51.446;-2.606;2022-12-11T12:00:04;40;33;
69350;PMS7003;57106;51.446;-2.606;2022-12-11T12:02:28;40;35;
69350;PMS7003;57106;51.446;-2.606;2022-12-11T12:04:53;35;32;
69350;PMS7003;57106;51.446;-2.606;2022-12-11T12:07:23;42;32;
69350;PMS7003;57106;51.446;-2.606;2022-12-11T12:09:45;45;40;
69350;PMS7003;57106;51.446;-2.606;2022-12-11T12:12:12;38;32;
69350;PMS7003;57106;51.446;-2.606;2022-12-11T12:14:37;38;35;
69350;PMS7003;57106;51.446;-2.606;2022-12-11T12:17:04;42;36;
69350;PMS7003;57106;51.446;-2.606;2022-12-11T12:19:31;46;38;
69350;PMS7003;57106;51.446;-2.606;2022-12-11T12:21:52;38;35;
69350;PMS7003;57106;51.446;-2.606;2022-12-11T12:26:43;35;35;
69350;PMS7003;57106;51.446;-2.606;2022-12-11T12:29:11;55;50;
69350;PMS7003;57106;51.446;-2.606;2022-12-11T12:53:24;29;25;
69350;PMS7003;57106;51.446;-2.606;2022-12-11T12:55:49;31;29;
69350;PMS7003;57106;51.446;-2.606;2022-12-11T13:00:43;30;25;
69350;PMS7003;57106;51.446;-2.606;2022-12-11T13:07:58;30;24;
69350;PMS7003;57106;51.446;-2.606;2022-12-11T13:10:29;24;21;
69350;PMS7003;57106;51.446;-2.606;2022-12-11T13:12:48;31;24;
69350;PMS7003;57106;51.446;-2.606;2022-12-11T13:17:39;33;26;
69350;PMS7003;57106;51.446;-2.606;2022-12-11T13:22:31;30;29;
69350;PMS7003;57106;51.446;-2.606;2022-12-11T13:34:43;34;26;
69350;PMS7003;57106;51.446;-2.606;2022-12-11T13:44:21;30;25;
69350;PMS7003;57106;51.446;-2.606;2022-12-11T13:46:47;32;30;
69350;PMS7003;57106;51.446;-2.606;2022-12-11T13:54:05;38;33;
69350;PMS7003;57106;51.446;-2.606;2022-12-11T13:56:33;31;29;
69350;PMS7003;57106;51.446;-2.606;2022-12-11T13:58:54;32;30;
69350;PMS7003;57106;51.446;-2.606;2022-12-11T14:03:47;27;26;
69350;PMS7003;57106;51.446;-2.606;2022-12-11T14:06:12;32;29;
69350;PMS7003;57106;51.446;-2.606;2022-12-11T14:11:02;28;24;
69350;PMS7003;57106;51.446;-2.606;2022-12-11T14:13:34;38;30;
69350;PMS7003;57106;51.446;-2.606;2022-12-11T14:15:54;38;29;
69350;PMS7003;57106;51.446;-2.606;2022-12-11T14:18:20;34;31;
69350;PMS7003;57106;51.446;-2.606;2022-12-11T14:20:51;35;30;
69350;PMS7003;57106;51.446;-2.606;2022-12-11T14:25:36;37;29;
69350;PMS7003;57106;51.446;-2.606;2022-12-11T14:28:03;37;31;
69350;PMS7003;57106;51.446;-2.606;2022-12-11T14:30:28;44;36;
69350;PMS7003;57106;51.446;-2.606;2022-12-11T14:32:53;38;33;
69350;PMS7003;57106;51.446;-2.606;2022-12-11T14:35:22;39;31;
69350;PMS7003;57106;51.446;-2.606;2022-12-11T14:37:49;30;29;
69350;PMS7003;57106;51.446;-2.606;2022-12-11T14:40:13;44;36;
69350;PMS7003;57106;51.446;-2.606;2022-12-11T14:42:37;38;34;
69350;PMS7003;57106;51.446;-2.606;2022-12-11T14:45:02;39;37;
69350;PMS7003;57106;51.446;-2.606;2022-12-11T14:47:26;37;36;
69350;PMS7003;57106;51.446;-2.606;2022-12-11T14:49:52;38;32;
69350;PMS7003;57106;51.446;-2.606;2022-12-11T14:52:17;36;30;
69350;PMS7003;57106;51.446;-2.606;2022-12-11T14:54:42;34;31;
69350;PMS7003;57106;51.446;-2.606;2022-12-11T14:57:07;39;32;
69350;PMS7003;57106;51.446;-2.606;2022-12-11T15:01:59;34;31;
69350;PMS7003;57106;51.446;-2.606;2022-12-11T15:04:27;47;37;
69350;PMS7003;57106;51.446;-2.606;2022-12-11T15:09:17;40;37;
69350;PMS7003;57106;51.446;-2.606;2022-12-11T15:11:41;34;32;
69350;PMS7003;57106;51.446;-2.606;2022-12-11T15:14:08;40;37;
69350;PMS7003;57106;51.446;-2.606;2022-12-11T15:16:32;35;30;
69350;PMS7003;57106;51.446;-2.606;2022-12-11T15:19:00;37;33;
69350;PMS7003;57106;51.446;-2.606;2022-12-11T15:21:27;43;37;
69350;PMS7003;57106;51.446;-2.606;2022-12-11T15:23:50;34;30;
69350;PMS7003;57106;51.446;-2.606;2022-12-11T15:26:14;36;32;
69350;PMS7003;57106;51.446;-2.606;2022-12-11T15:28:40;36;32;
69350;PMS7003;57106;51.446;-2.606;2022-12-11T15:31:22;43;35;
69350;PMS7003;57106;51.446;-2.606;2022-12-11T15:35:59;41;33;
69350;PMS7003;57106;51.446;-2.606;2022-12-11T15:38:29;38;30;
69350;PMS7003;57106;51.446;-2.606;2022-12-11T15:40:53;37;30;
69350;PMS7003;57106;51.446;-2.606;2022-12-11T15:43:13;36;32;
69350;PMS7003;57106;51.446;-2.606;2022-12-11T15:48:06;31;29;
69350;PMS7003;57106;51.446;-2.606;2022-12-11T15:57:48;33;27;
69350;PMS7003;57106;51.446;-2.606;2022-12-11T16:00:13;35;30;
69350;PMS7003;57106;51.446;-2.606;2022-12-11T16:02:37;31;30;
69350;PMS7003;57106;51.446;-2.606;2022-12-11T16:14:45;35;28;
69350;PMS7003;57106;51.446;-2.606;2022-12-11T16:17:10;31;30;
69350;PMS7003;57106;51.446;-2.606;2022-12-11T16:19:35;47;36;
69350;PMS7003;57106;51.446;-2.606;2022-12-11T16:22:07;54;41;
69350;PMS7003;57106;51.446;-2.606;2022-12-11T16:31:45;29;25;
69350;PMS7003;57106;51.446;-2.606;2022-12-11T16:34:11;30;25;
69350;PMS7003;57106;51.446;-2.606;2022-12-11T16:36:39;33;24;
69350;PMS7003;57106;51.446;-2.606;2022-12-11T16:41:25;27;23;
69350;PMS7003;57106;51.446;-2.606;2022-12-11T16:43:51;31;25;
69350;PMS7003;57106;51.446;-2.606;2022-12-11T16:46:16;34;28;
69350;PMS7003;57106;51.446;-2.606;2022-12-11T16:48:42;23;22;
69350;PMS7003;57106;51.446;-2.606;2022-12-11T16:51:07;28;23;
69350;PMS7003;57106;51.446;-2.606;2022-12-11T16:53:37;37;31;
69350;PMS7003;57106;51.446;-2.606;2022-12-11T16:55:58;30;29;
69350;PMS7003;57106;51.446;-2.606;2022-12-11T16:58:24;42;34;
69350;PMS7003;57106;51.446;-2.606;2022-12-11T17:00:53;28;26;
69350;PMS7003;57106;51.446;-2.606;2022-12-11T17:03:15;33;28;
69350;PMS7003;57106;51.446;-2.606;2022-12-11T17:05:40;28;24;
69350;PMS7003;57106;51.446;-2.606;2022-12-11T17:08:06;28;26;
69350;PMS7003;57106;51.446;-2.606;2022-12-11T17:10:31;26;22;
69350;PMS7003;57106;51.446;-2.606;2022-12-11T17:12:57;32;29;
69350;PMS7003;57106;51.446;-2.606;2022-12-11T17:15:28;28;23;
69350;PMS7003;57106;51.446;-2.606;2022-12-11T17:17:52;32;26;
69350;PMS7003;57106;51.446;-2.606;2022-12-11T17:20:14;35;29;
69350;PMS7003;57106;51.446;-2.606;2022-12-11T17:22:40;38;30;
69350;PMS7003;57106;51.446;-2.606;2022-12-11T17:25:05;36;31;
69350;PMS7003;57106;51.446;-2.606;2022-12-11T17:34:52;37;35;
69350;PMS7003;57106;51.446;-2.606;2022-12-11T17:39:39;42;34;
69350;PMS7003;57106;51.446;-2.606;2022-12-11T17:42:02;38;35;
69350;PMS7003;57106;51.446;-2.606;2022-12-11T17:44:27;35;30;
69350;PMS7003;57106;51.446;-2.606;2022-12-11T17:46:53;34;27;
69350;PMS7003;57106;51.446;-2.606;2022-12-11T17:49:19;37;35;
69350;PMS7003;57106;51.446;-2.606;2022-12-11T17:51:44;42;35;
69350;PMS7003;57106;51.446;-2.606;2022-12-11T17:54:17;36;31;
69350;PMS7003;57106;51.446;-2.606;2022-12-11T17:56:40;40;33;
69350;PMS7003;57106;51.446;-2.606;2022-12-11T17:59:01;43;38;
69350;PMS7003;57106;51.446;-2.606;2022-12-11T18:01:27;34;27;
69350;PMS7003;57106;51.446;-2.606;2022-12-11T18:03:53;31;29;
69350;PMS7003;57106;51.446;-2.606;2022-12-11T18:06:19;48;41;
69350;PMS7003;57106;51.446;-2.606;2022-12-11T18:08:44;33;28;
69350;PMS7003;57106;51.446;-2.606;2022-12-11T18:11:10;33;29;
69350;PMS7003;57106;51.446;-2.606;2022-12-11T18:13:34;42;34;
69350;PMS7003;57106;51.446;-2.606;2022-12-11T18:16:00;34;29;
69350;PMS7003;57106;51.446;-2.606;2022-12-11T18:18:27;42;35;
69350;PMS7003;57106;51.446;-2.606;2022-12-11T18:20:56;36;36;
69350;PMS7003;57106;51.446;-2.606;2022-12-11T18:23:17;34;31;
69350;PMS7003;57106;51.446;-2.606;2022-12-11T18:25:46;35;31;
69350;PMS7003;57106;51.446;-2.606;2022-12-11T18:28:08;35;30;
69350;PMS7003;57106;51.446;-2.606;2022-12-11T18:30:32;40;36;
69350;PMS7003;57106;51.446;-2.606;2022-12-11T18:32:58;41;34;
69350;PMS7003;57106;51.446;-2.606;2022-12-11T18:35:23;31;30;
69350;PMS7003;57106;51.446;-2.606;2022-12-11T18:37:48;36;30;
69350;PMS7003;57106;51.446;-2.606;2022-12-11T18:40:14;35;32;
69350;PMS7003;57106;51.446;-2.606;2022-12-11T18:42:40;35;31;
69350;PMS7003;57106;51.446;-2.606;2022-12-11T18:45:07;35;31;
69350;PMS7003;57106;51.446;-2.606;2022-12-11T18:47:32;59;51;
69350;PMS7003;57106;51.446;-2.606;2022-12-11T18:49:57;40;35;
69350;PMS7003;57106;51.446;-2.606;2022-12-11T18:52:22;37;34;
69350;PMS7003;57106;51.446;-2.606;2022-12-11T18:54:47;33;30;
69350;PMS7003;57106;51.446;-2.606;2022-12-11T18:57:13;34;30;
69350;PMS7003;57106;51.446;-2.606;2022-12-11T18:59:38;42;35;
69350;PMS7003;57106;51.446;-2.606;2022-12-11T19:02:04;41;35;
69350;PMS7003;57106;51.446;-2.606;2022-12-11T19:04:31;40;34;
69350;PMS7003;57106;51.446;-2.606;2022-12-11T19:07:05;37;34;
69350;PMS7003;57106;51.446;-2.606;2022-12-11T19:09:21;32;29;
69350;PMS7003;57106;51.446;-2.606;2022-12-11T19:11:46;45;39;
69350;PMS7003;57106;51.446;-2.606;2022-12-11T19:14:11;44;35;
69350;PMS7003;57106;51.446;-2.606;2022-12-11T19:16:38;35;28;
69350;PMS7003;57106;51.446;-2.606;2022-12-11T19:19:04;35;28;
69350;PMS7003;57106;51.446;-2.606;2022-12-11T19:23:54;28;27;
69350;PMS7003;57106;51.446;-2.606;2022-12-11T19:26:21;34;28;
69350;PMS7003;57106;51.446;-2.606;2022-12-11T19:28:45;34;31;
69350;PMS7003;57106;51.446;-2.606;2022-12-11T19:31:13;33;28;
69350;PMS7003;57106;51.446;-2.606;2022-12-11T19:33:35;37;30;
69350;PMS7003;57106;51.446;-2.606;2022-12-11T19:36:01;33;29;
69350;PMS7003;57106;51.446;-2.606;2022-12-11T19:40:53;35;28;